createdAt,value
2019-03-26T00:01:15.160Z,68.20
2019-03-26T00:02:51.503Z,68.13
2019-03-26T00:04:27.677Z,64.33
2019-03-26T00:06:03.913Z,61.87
2019-03-26T00:07:40.221Z,63.97
2019-03-26T00:09:16.557Z,68.80
2019-03-26T00:10:52.887Z,56.10
2019-03-26T00:12:29.388Z,60.47
2019-03-26T00:14:06.209Z,64.57
2019-03-26T00:15:42.646Z,69.40
2019-03-26T00:17:18.822Z,71.50
2019-03-26T00:18:56.310Z,71.23
2019-03-26T00:20:32.656Z,67.00
2019-03-26T00:22:08.996Z,70.23
2019-03-26T00:23:45.444Z,71.30
2019-03-26T00:25:21.746Z,72.00
2019-03-26T00:26:57.934Z,63.63
2019-03-26T00:28:34.139Z,66.10
2019-03-26T00:30:11.560Z,66.20
2019-03-26T00:31:47.992Z,63.43
2019-03-26T00:33:35.665Z,72.83
2019-03-26T00:35:02.234Z,63.57
2019-03-26T00:36:38.571Z,63.37
2019-03-26T00:38:14.802Z,64.40
2019-03-26T00:39:51.140Z,68.17
2019-03-26T00:41:27.499Z,75.37
2019-03-26T00:43:03.720Z,74.67
2019-03-26T00:44:40.171Z,68.80
2019-03-26T00:46:16.521Z,62.93
2019-03-26T00:47:52.705Z,62.60
2019-03-26T00:49:28.805Z,62.77
2019-03-26T00:51:05.062Z,67.40
2019-03-26T00:52:41.148Z,68.30
2019-03-26T00:54:17.953Z,68.37
2019-03-26T00:55:54.482Z,64.77
2019-03-26T00:57:30.862Z,69.33
2019-03-26T00:59:07.288Z,68.50
2019-03-26T01:00:44.694Z,74.97
2019-03-26T01:02:20.903Z,79.07
2019-03-26T01:03:57.353Z,73.43
2019-03-26T01:05:33.844Z,70.93
2019-03-26T01:07:10.211Z,65.80
2019-03-26T01:08:46.460Z,71.73
2019-03-26T01:10:28.064Z,79.93
2019-03-26T01:12:04.243Z,76.97
2019-03-26T01:13:40.315Z,81.50
2019-03-26T01:15:16.740Z,76.67
2019-03-26T01:16:52.970Z,67.87
2019-03-26T01:18:29.063Z,78.87
2019-03-26T01:20:07.539Z,73.13
2019-03-26T01:21:43.706Z,63.00
2019-03-26T01:23:19.806Z,65.03
2019-03-26T01:24:55.976Z,63.73
2019-03-26T01:26:32.258Z,70.87
2019-03-26T01:28:09.606Z,63.47
2019-03-26T01:29:45.765Z,59.60
2019-03-26T01:31:21.999Z,60.27
2019-03-26T01:32:58.362Z,63.97
2019-03-26T01:34:45.444Z,58.80
2019-03-26T01:36:12.383Z,59.70
2019-03-26T01:37:48.486Z,53.37
2019-03-26T01:39:24.733Z,51.60
2019-03-26T01:41:01.129Z,55.73
2019-03-26T01:42:37.436Z,51.53
2019-03-26T01:44:13.778Z,54.07
2019-03-26T01:45:49.893Z,62.43
2019-03-26T01:47:26.121Z,60.77
2019-03-26T01:49:02.454Z,55.97
2019-03-26T01:50:38.699Z,53.43
2019-03-26T01:52:14.861Z,55.87
2019-03-26T01:53:51.023Z,53.83
2019-03-26T01:55:27.355Z,59.93
2019-03-26T01:57:03.588Z,53.33
2019-03-26T01:58:39.848Z,57.23
2019-03-26T02:00:16.243Z,54.47
2019-03-26T02:01:52.505Z,53.60
2019-03-26T02:03:29.851Z,53.23
2019-03-26T02:05:07.587Z,51.13
2019-03-26T02:06:43.823Z,52.03
2019-03-26T02:08:19.964Z,58.80
2019-03-26T02:09:56.192Z,56.43
2019-03-26T02:11:32.388Z,58.70
2019-03-26T02:13:08.562Z,56.33
2019-03-26T02:14:44.756Z,58.30
2019-03-26T02:16:20.922Z,51.37
2019-03-26T02:17:57.966Z,54.33
2019-03-26T02:19:34.235Z,53.40
2019-03-26T02:21:10.766Z,56.33
2019-03-26T02:22:46.868Z,53.90
2019-03-26T02:24:23.153Z,56.10
2019-03-26T02:25:59.320Z,55.90
2019-03-26T02:27:35.552Z,58.23
2019-03-26T02:29:11.809Z,57.20
2019-03-26T02:30:48.059Z,55.80
2019-03-26T02:32:24.284Z,55.80
2019-03-26T02:34:00.419Z,55.80
2019-03-26T02:35:36.721Z,55.30
2019-03-26T02:37:12.958Z,57.10
2019-03-26T02:38:49.118Z,62.23
2019-03-26T02:40:25.427Z,58.90
2019-03-26T02:42:01.587Z,57.97
2019-03-26T02:43:38.416Z,56.90
2019-03-26T02:45:14.719Z,61.20
2019-03-26T02:46:50.436Z,61.03
2019-03-26T02:48:26.542Z,61.93
2019-03-26T02:50:02.579Z,66.13
2019-03-26T02:51:38.720Z,64.67
2019-03-26T02:53:15.018Z,69.63
2019-03-26T02:54:51.275Z,71.03
2019-03-26T02:56:27.370Z,72.13
2019-03-26T02:58:03.363Z,69.83
2019-03-26T02:59:39.591Z,82.27
2019-03-26T03:01:15.678Z,74.90
2019-03-26T03:02:51.914Z,80.53
2019-03-26T03:04:28.240Z,80.37
2019-03-26T03:06:04.549Z,77.53
2019-03-26T03:07:40.855Z,80.27
2019-03-26T03:09:17.024Z,78.70
2019-03-26T03:10:53.093Z,77.93
2019-03-26T03:12:29.183Z,77.23
2019-03-26T03:14:06.543Z,79.27
2019-03-26T03:15:42.697Z,82.83
2019-03-26T03:17:18.828Z,80.00
2019-03-26T03:18:55.062Z,89.83
2019-03-26T03:20:31.247Z,81.57
2019-03-26T03:22:07.350Z,84.60
2019-03-26T03:23:43.438Z,81.67
2019-03-26T03:25:19.680Z,83.93
2019-03-26T03:26:55.920Z,83.83
2019-03-26T03:28:32.152Z,86.87
2019-03-26T03:30:09.651Z,89.17
2019-03-26T03:31:45.721Z,82.97
2019-03-26T03:33:21.867Z,83.73
2019-03-26T03:34:58.031Z,94.03
2019-03-26T03:36:34.361Z,91.97
2019-03-26T03:38:10.528Z,84.13
2019-03-26T03:39:46.664Z,87.73
2019-03-26T03:41:22.978Z,90.67
2019-03-26T03:42:59.388Z,88.57
2019-03-26T03:44:35.731Z,89.40
2019-03-26T03:46:12.116Z,84.50
2019-03-26T03:47:48.613Z,83.37
2019-03-26T03:49:28.143Z,75.07
2019-03-26T03:51:07.087Z,80.50
2019-03-26T03:52:43.781Z,81.73
2019-03-26T03:54:22.181Z,83.37
2019-03-26T03:56:01.148Z,78.73
2019-03-26T03:57:39.685Z,78.00
2019-03-26T03:59:16.686Z,83.77
2019-03-26T04:00:52.889Z,83.80
2019-03-26T04:02:29.059Z,83.70
2019-03-26T04:04:05.401Z,84.73
2019-03-26T04:05:41.706Z,74.57
2019-03-26T04:07:17.909Z,85.33
2019-03-26T04:08:54.093Z,80.23
2019-03-26T04:10:30.253Z,91.47
2019-03-26T04:12:06.558Z,77.87
2019-03-26T04:13:42.557Z,80.83
2019-03-26T04:15:18.769Z,75.13
2019-03-26T04:16:55.100Z,78.47
2019-03-26T04:18:31.220Z,79.13
2019-03-26T04:20:07.688Z,74.73
2019-03-26T04:21:43.936Z,82.27
2019-03-26T04:23:19.908Z,82.83
2019-03-26T04:24:56.059Z,72.83
2019-03-26T04:26:32.218Z,75.43
2019-03-26T04:28:08.434Z,65.80
2019-03-26T04:29:44.543Z,75.10
2019-03-26T04:31:20.694Z,70.63
2019-03-26T04:32:56.875Z,71.40
2019-03-26T04:34:33.136Z,73.70
2019-03-26T04:36:24.893Z,74.07
2019-03-26T04:37:48.462Z,81.00
2019-03-26T04:39:24.745Z,70.80
2019-03-26T04:41:00.842Z,72.67
2019-03-26T04:42:37.012Z,73.97
2019-03-26T04:44:13.179Z,78.97
2019-03-26T04:45:49.339Z,80.43
2019-03-26T04:47:25.510Z,69.17
2019-03-26T04:49:01.624Z,71.57
2019-03-26T04:50:37.791Z,63.33
2019-03-26T04:52:14.094Z,72.20
2019-03-26T04:53:50.256Z,69.37
2019-03-26T04:55:26.496Z,67.00
2019-03-26T04:57:02.760Z,66.43
2019-03-26T04:58:38.835Z,65.10
2019-03-26T05:00:16.231Z,64.13
2019-03-26T05:01:52.306Z,56.83
2019-03-26T05:03:28.476Z,58.80
2019-03-26T05:05:05.812Z,55.93
2019-03-26T05:06:41.896Z,57.40
2019-03-26T05:08:18.155Z,57.53
2019-03-26T05:09:54.454Z,50.87
2019-03-26T05:11:30.632Z,48.70
2019-03-26T05:13:06.852Z,62.87
2019-03-26T05:14:44.213Z,59.30
2019-03-26T05:16:20.454Z,57.53
2019-03-26T05:17:57.007Z,55.87
2019-03-26T05:19:33.338Z,56.20
2019-03-26T05:21:09.432Z,54.77
2019-03-26T05:22:45.610Z,52.97
2019-03-26T05:24:21.859Z,52.00
2019-03-26T05:25:57.785Z,55.10
2019-03-26T05:27:44.902Z,50.20
2019-03-26T05:29:11.752Z,49.33
2019-03-26T05:30:47.935Z,48.77
2019-03-26T05:32:23.716Z,53.43
2019-03-26T05:33:59.879Z,58.40
2019-03-26T05:35:36.138Z,55.33
2019-03-26T05:37:12.467Z,48.33
2019-03-26T05:38:48.812Z,51.43
2019-03-26T05:40:25.045Z,43.20
2019-03-26T05:42:01.295Z,47.00
2019-03-26T05:43:37.402Z,49.03
2019-03-26T05:45:14.306Z,41.70
2019-03-26T05:46:50.439Z,43.10
2019-03-26T05:48:26.570Z,45.33
2019-03-26T05:50:02.731Z,44.27
2019-03-26T05:51:38.978Z,40.50
2019-03-26T05:53:15.068Z,44.47
2019-03-26T05:54:51.310Z,42.17
2019-03-26T05:56:30.499Z,41.27
2019-03-26T05:58:05.757Z,46.57
2019-03-26T05:59:42.876Z,41.17
2019-03-26T06:01:18.973Z,45.30
2019-03-26T06:02:55.107Z,42.33
2019-03-26T06:04:31.264Z,43.47
2019-03-26T06:06:07.324Z,46.10
2019-03-26T06:07:44.679Z,42.67
2019-03-26T06:09:20.800Z,45.00
2019-03-26T06:10:56.881Z,38.53
2019-03-26T06:12:33.043Z,47.17
2019-03-26T06:14:09.212Z,41.60
2019-03-26T06:15:45.275Z,43.37
2019-03-26T06:17:21.552Z,43.20
2019-03-26T06:18:57.739Z,33.33
2019-03-26T06:20:33.975Z,41.23
2019-03-26T06:22:10.213Z,34.80
2019-03-26T06:23:46.377Z,37.33
2019-03-26T06:25:22.649Z,33.20
2019-03-26T06:26:58.849Z,29.17
2019-03-26T06:28:35.085Z,40.10
2019-03-26T06:30:11.779Z,35.40
2019-03-26T06:31:47.891Z,37.03
2019-03-26T06:33:24.162Z,33.10
2019-03-26T06:35:00.366Z,33.27
2019-03-26T06:36:36.464Z,32.13
2019-03-26T06:38:12.625Z,33.23
2019-03-26T06:39:48.891Z,34.27
2019-03-26T06:41:25.075Z,30.97
2019-03-26T06:43:01.169Z,31.13
2019-03-26T06:44:37.290Z,36.13
2019-03-26T06:46:13.515Z,36.93
2019-03-26T06:47:49.748Z,35.47
2019-03-26T06:49:25.933Z,41.63
2019-03-26T06:51:14.742Z,33.90
2019-03-26T06:52:50.802Z,40.30
2019-03-26T06:54:26.996Z,41.17
2019-03-26T06:56:03.060Z,47.33
2019-03-26T06:57:39.358Z,47.07
2019-03-26T06:59:15.500Z,45.70
2019-03-26T07:00:51.800Z,37.20
2019-03-26T07:02:28.100Z,57.50
2019-03-26T07:04:04.805Z,56.80
2019-03-26T07:05:41.037Z,55.93
2019-03-26T07:07:30.522Z,49.63
2019-03-26T07:08:55.516Z,50.80
2019-03-26T07:10:32.217Z,47.17
2019-03-26T07:12:08.311Z,41.27
2019-03-26T07:13:44.547Z,44.53
2019-03-26T07:15:20.882Z,49.87
2019-03-26T07:16:56.809Z,39.00
2019-03-26T07:18:33.159Z,38.97
2019-03-26T07:20:10.484Z,38.30
2019-03-26T07:21:49.908Z,36.07
2019-03-26T07:23:24.551Z,41.17
2019-03-26T07:25:00.883Z,41.10
2019-03-26T07:26:37.091Z,37.93
2019-03-26T07:28:13.290Z,35.60
2019-03-26T07:29:49.527Z,34.07
2019-03-26T07:31:25.702Z,35.27
2019-03-26T07:33:01.792Z,35.97
2019-03-26T07:34:37.979Z,40.20
2019-03-26T07:36:14.289Z,37.83
2019-03-26T07:37:50.448Z,39.03
2019-03-26T07:39:26.610Z,39.50
2019-03-26T07:41:03.021Z,32.07
2019-03-26T07:42:40.528Z,38.87
2019-03-26T07:44:16.790Z,40.10
2019-03-26T07:45:53.105Z,40.87
2019-03-26T07:47:29.264Z,39.00
2019-03-26T07:49:05.551Z,42.77
2019-03-26T07:50:41.886Z,45.43
2019-03-26T07:52:18.118Z,45.83
2019-03-26T07:53:54.207Z,55.57
2019-03-26T07:55:30.485Z,57.97
2019-03-26T07:57:06.729Z,47.33
2019-03-26T07:58:42.866Z,46.97
2019-03-26T08:00:23.816Z,51.00
2019-03-26T08:01:59.907Z,47.50
2019-03-26T08:03:35.904Z,47.87
2019-03-26T08:05:12.238Z,43.07
2019-03-26T08:06:48.310Z,42.33
2019-03-26T08:08:24.463Z,53.87
2019-03-26T08:10:00.633Z,48.13
2019-03-26T08:11:36.908Z,40.30
2019-03-26T08:13:13.173Z,47.47
2019-03-26T08:14:49.293Z,41.80
2019-03-26T08:16:25.459Z,51.57
2019-03-26T08:18:01.675Z,42.77
2019-03-26T08:19:37.778Z,41.07
2019-03-26T08:21:14.016Z,46.00
2019-03-26T08:22:50.081Z,43.27
2019-03-26T08:24:26.406Z,38.90
2019-03-26T08:26:02.844Z,38.27
2019-03-26T08:27:38.943Z,42.33
2019-03-26T08:29:15.094Z,35.63
2019-03-26T08:30:51.322Z,34.60
2019-03-26T08:32:27.411Z,35.40
2019-03-26T08:34:03.548Z,28.33
2019-03-26T08:35:39.638Z,34.00
2019-03-26T08:37:15.843Z,31.30
2019-03-26T08:38:51.968Z,36.00
2019-03-26T08:40:28.134Z,32.70
2019-03-26T08:42:04.364Z,32.27
2019-03-26T08:43:41.109Z,31.17
2019-03-26T08:45:17.427Z,36.23
2019-03-26T08:46:53.234Z,41.53
2019-03-26T08:48:32.367Z,35.37
2019-03-26T08:50:09.319Z,37.60
2019-03-26T08:51:45.350Z,35.80
2019-03-26T08:53:21.593Z,34.60
2019-03-26T08:54:57.770Z,31.60
2019-03-26T08:56:34.054Z,29.30
2019-03-26T08:58:10.151Z,28.93
2019-03-26T08:59:46.315Z,26.90
2019-03-26T09:01:23.746Z,25.30
2019-03-26T09:03:00.006Z,27.53
2019-03-26T09:04:36.192Z,23.83
2019-03-26T09:06:12.496Z,23.77
2019-03-26T09:07:48.838Z,20.50
2019-03-26T09:09:25.080Z,20.13
2019-03-26T09:11:01.270Z,22.73
2019-03-26T09:12:39.534Z,20.13
2019-03-26T09:14:15.179Z,24.00
2019-03-26T09:15:51.456Z,26.00
2019-03-26T09:17:27.695Z,17.40
2019-03-26T09:19:03.936Z,16.80
2019-03-26T09:20:40.113Z,20.63
2019-03-26T09:22:16.252Z,23.50
2019-03-26T09:23:52.491Z,21.53
2019-03-26T09:25:28.556Z,21.97
2019-03-26T09:27:07.057Z,17.27
2019-03-26T09:28:43.245Z,15.87
2019-03-26T09:30:19.626Z,18.77
2019-03-26T09:31:55.936Z,17.63
2019-03-26T09:33:32.108Z,24.40
2019-03-26T09:35:09.858Z,21.93
2019-03-26T09:36:45.926Z,22.90
2019-03-26T09:38:22.266Z,25.27
2019-03-26T09:39:58.384Z,14.80
2019-03-26T09:41:34.604Z,16.80
2019-03-26T09:43:10.695Z,16.87
2019-03-26T09:44:46.758Z,19.30
2019-03-26T09:46:23.023Z,21.37
2019-03-26T09:47:59.232Z,17.73
2019-03-26T09:49:35.486Z,15.07
2019-03-26T09:51:11.683Z,19.03
2019-03-26T09:52:47.848Z,13.20
2019-03-26T09:54:24.079Z,16.17
2019-03-26T09:56:00.542Z,15.77
2019-03-26T09:57:38.041Z,17.77
2019-03-26T09:59:14.187Z,15.07
2019-03-26T10:00:50.551Z,15.07
2019-03-26T10:02:27.097Z,15.10
2019-03-26T10:04:04.523Z,15.77
2019-03-26T10:05:40.769Z,15.20
2019-03-26T10:07:21.699Z,17.77
2019-03-26T10:08:54.855Z,15.13
2019-03-26T10:10:31.039Z,13.27
2019-03-26T10:12:07.329Z,12.63
2019-03-26T10:13:43.496Z,13.40
2019-03-26T10:15:19.747Z,15.47
2019-03-26T10:16:55.908Z,13.63
2019-03-26T10:18:32.083Z,11.50
2019-03-26T10:20:09.202Z,14.13
2019-03-26T10:21:45.263Z,15.80
2019-03-26T10:23:21.532Z,13.23
2019-03-26T10:24:57.704Z,15.50
2019-03-26T10:26:33.952Z,12.23
2019-03-26T10:28:10.175Z,9.87
2019-03-26T10:29:46.280Z,13.50
2019-03-26T10:31:22.599Z,13.87
2019-03-26T10:32:58.928Z,12.87
2019-03-26T10:34:36.687Z,15.23
2019-03-26T10:36:12.999Z,17.00
2019-03-26T10:37:49.271Z,19.20
2019-03-26T10:39:25.525Z,16.60
2019-03-26T10:41:01.634Z,15.67
2019-03-26T10:42:37.892Z,13.53
2019-03-26T10:44:14.143Z,13.87
2019-03-26T10:45:50.440Z,12.30
2019-03-26T10:47:26.489Z,11.27
2019-03-26T10:49:02.706Z,14.60
2019-03-26T10:50:39.124Z,12.67
2019-03-26T10:52:15.254Z,12.60
2019-03-26T10:53:51.421Z,19.30
2019-03-26T10:55:27.718Z,13.30
2019-03-26T10:57:03.999Z,9.07
2019-03-26T10:58:40.223Z,14.30
2019-03-26T11:00:17.114Z,17.73
2019-03-26T11:01:53.239Z,16.40
2019-03-26T11:03:29.341Z,21.93
2019-03-26T11:05:07.639Z,16.10
2019-03-26T11:06:43.693Z,17.33
2019-03-26T11:08:19.854Z,17.50
2019-03-26T11:09:56.105Z,14.77
2019-03-26T11:11:32.259Z,15.07
2019-03-26T11:13:08.572Z,11.80
2019-03-26T11:14:44.916Z,10.90
2019-03-26T11:16:21.067Z,11.30
2019-03-26T11:17:57.305Z,16.00
2019-03-26T11:19:33.534Z,13.93
2019-03-26T11:21:09.938Z,12.50
2019-03-26T11:22:46.235Z,11.20
2019-03-26T11:24:22.322Z,21.57
2019-03-26T11:25:58.344Z,9.53
2019-03-26T11:27:34.560Z,9.97
2019-03-26T11:29:10.784Z,10.33
2019-03-26T11:30:46.934Z,14.33
2019-03-26T11:32:23.103Z,10.67
2019-03-26T11:33:59.433Z,11.27
2019-03-26T11:35:35.725Z,11.20
2019-03-26T11:37:12.023Z,20.30
2019-03-26T11:38:48.356Z,22.47
2019-03-26T11:40:24.584Z,11.57
2019-03-26T11:42:00.839Z,12.93
2019-03-26T11:43:37.062Z,14.90
2019-03-26T11:45:13.967Z,13.13
2019-03-26T11:46:50.026Z,13.03
2019-03-26T11:48:26.353Z,14.30
2019-03-26T11:50:04.796Z,18.07
2019-03-26T11:51:40.847Z,11.67
2019-03-26T11:53:17.075Z,9.17
2019-03-26T11:54:53.242Z,10.03
2019-03-26T11:56:29.489Z,8.67
2019-03-26T11:58:05.714Z,7.80
2019-03-26T11:59:41.937Z,9.43
2019-03-26T12:01:18.089Z,20.63
2019-03-26T12:02:54.387Z,16.97
2019-03-26T12:04:30.512Z,17.30
2019-03-26T12:06:06.811Z,14.43
2019-03-26T12:07:43.269Z,15.87
2019-03-26T12:09:19.231Z,12.77
2019-03-26T12:10:56.229Z,13.60
2019-03-26T12:12:32.405Z,9.63
2019-03-26T12:14:08.702Z,12.57
2019-03-26T12:15:44.939Z,14.47
2019-03-26T12:17:21.092Z,16.90
2019-03-26T12:18:57.251Z,11.33
2019-03-26T12:20:33.338Z,11.70
2019-03-26T12:22:09.557Z,12.43
2019-03-26T12:23:45.720Z,9.67
2019-03-26T12:25:22.015Z,20.60
2019-03-26T12:26:58.267Z,9.97
2019-03-26T12:28:34.418Z,13.03
2019-03-26T12:30:11.566Z,26.50
2019-03-26T12:31:47.852Z,22.57
2019-03-26T12:33:24.107Z,24.93
2019-03-26T12:35:00.402Z,13.73
2019-03-26T12:36:40.130Z,16.67
2019-03-26T12:38:19.483Z,30.13
2019-03-26T12:39:59.757Z,33.47
2019-03-26T12:41:33.652Z,16.30
2019-03-26T12:43:09.849Z,28.87
2019-03-26T12:44:46.072Z,19.03
2019-03-26T12:46:22.304Z,15.43
2019-03-26T12:47:58.574Z,21.57
2019-03-26T12:49:34.870Z,16.90
2019-03-26T12:51:10.973Z,10.33
2019-03-26T12:52:47.051Z,12.40
2019-03-26T12:54:23.162Z,14.87
2019-03-26T12:55:59.036Z,19.47
2019-03-26T12:57:35.195Z,9.93
2019-03-26T12:59:11.376Z,10.13
2019-03-26T13:00:47.498Z,16.73
2019-03-26T13:02:23.715Z,19.07
2019-03-26T13:04:11.965Z,14.60
2019-03-26T13:05:37.936Z,14.93
2019-03-26T13:07:14.225Z,13.17
2019-03-26T13:08:50.495Z,18.53
2019-03-26T13:10:26.780Z,19.20
2019-03-26T13:12:03.141Z,15.40
2019-03-26T13:13:39.355Z,10.43
2019-03-26T13:15:15.556Z,12.07
2019-03-26T13:16:51.717Z,11.60
2019-03-26T13:18:27.897Z,12.43
2019-03-26T13:20:05.292Z,14.47
2019-03-26T13:21:41.450Z,13.77
2019-03-26T13:23:17.768Z,15.33
2019-03-26T13:24:54.028Z,13.90
2019-03-26T13:26:30.327Z,16.57
2019-03-26T13:28:06.620Z,19.87
2019-03-26T13:29:42.926Z,18.33
2019-03-26T13:31:19.074Z,15.73
2019-03-26T13:32:55.371Z,16.37
2019-03-26T13:34:31.612Z,15.07
2019-03-26T13:36:07.920Z,18.93
2019-03-26T13:37:44.042Z,13.43
2019-03-26T13:39:20.190Z,13.67
2019-03-26T13:40:56.487Z,19.70
2019-03-26T13:42:32.730Z,16.50
2019-03-26T13:44:08.978Z,15.17
2019-03-26T13:45:45.323Z,23.97
2019-03-26T13:47:21.605Z,22.17
2019-03-26T13:48:57.772Z,24.63
2019-03-26T13:50:34.082Z,20.13
2019-03-26T13:52:10.314Z,22.07
2019-03-26T13:53:46.560Z,21.63
2019-03-26T13:55:22.854Z,20.67
2019-03-26T13:56:58.987Z,16.83
2019-03-26T13:58:35.137Z,10.90
2019-03-26T14:00:12.639Z,14.13
2019-03-26T14:01:48.771Z,12.40
2019-03-26T14:03:24.983Z,14.47
2019-03-26T14:05:01.882Z,15.00
2019-03-26T14:06:38.019Z,15.37
2019-03-26T14:08:14.321Z,19.90
2019-03-26T14:09:50.477Z,16.97
2019-03-26T14:11:26.710Z,18.00
2019-03-26T14:13:03.111Z,18.37
2019-03-26T14:14:39.342Z,18.17
2019-03-26T14:16:15.481Z,20.17
2019-03-26T14:17:51.818Z,20.77
2019-03-26T14:19:28.048Z,17.10
2019-03-26T14:21:04.573Z,15.27
2019-03-26T14:22:40.803Z,16.67
2019-03-26T14:24:17.095Z,16.37
2019-03-26T14:25:53.394Z,19.37
2019-03-26T14:27:29.603Z,21.23
2019-03-26T14:29:05.909Z,17.63
2019-03-26T14:30:44.524Z,21.73
2019-03-26T14:32:20.613Z,21.10
2019-03-26T14:33:56.829Z,20.13
2019-03-26T14:35:32.986Z,20.03
2019-03-26T14:37:09.307Z,20.97
2019-03-26T14:38:45.402Z,21.73
2019-03-26T14:40:22.832Z,22.27
2019-03-26T14:41:59.066Z,22.47
2019-03-26T14:43:35.376Z,21.03
2019-03-26T14:45:11.685Z,22.53
2019-03-26T14:46:47.856Z,17.63
2019-03-26T14:48:24.153Z,18.73
2019-03-26T14:50:00.423Z,22.37
2019-03-26T14:51:36.577Z,16.77
2019-03-26T14:53:12.876Z,17.30
2019-03-26T14:54:49.208Z,16.30
2019-03-26T14:56:25.450Z,17.93
2019-03-26T14:58:01.750Z,20.47
2019-03-26T14:59:38.081Z,18.50
2019-03-26T15:01:15.519Z,20.33
2019-03-26T15:02:51.679Z,15.47
2019-03-26T15:04:27.666Z,19.10
2019-03-26T15:06:04.710Z,15.40
2019-03-26T15:07:40.972Z,17.83
2019-03-26T15:09:17.210Z,19.70
2019-03-26T15:10:53.438Z,15.23
2019-03-26T15:12:29.605Z,13.37
2019-03-26T15:14:06.107Z,10.27
2019-03-26T15:15:42.407Z,10.67
2019-03-26T15:17:18.680Z,10.70
2019-03-26T15:18:54.917Z,11.50
2019-03-26T15:20:31.175Z,9.83
2019-03-26T15:22:07.507Z,9.23
2019-03-26T15:23:43.700Z,8.53
2019-03-26T15:25:19.923Z,12.83
2019-03-26T15:26:56.075Z,10.93
2019-03-26T15:28:32.334Z,11.33
2019-03-26T15:30:10.169Z,9.50
2019-03-26T15:31:46.412Z,13.50
2019-03-26T15:33:22.567Z,10.40
2019-03-26T15:34:58.794Z,11.90
2019-03-26T15:36:34.950Z,14.87
2019-03-26T15:38:11.247Z,195.93
2019-03-26T15:39:47.507Z,23.83
2019-03-26T15:41:23.732Z,19.30
2019-03-26T15:42:59.918Z,16.10
2019-03-26T15:44:36.199Z,20.90
2019-03-26T15:46:13.064Z,46.93
2019-03-26T15:47:49.291Z,27.07
2019-03-26T15:49:25.414Z,49.40
2019-03-26T15:51:01.566Z,18.97
2019-03-26T15:52:42.082Z,20.20
2019-03-26T15:54:16.785Z,18.63
2019-03-26T15:55:53.026Z,18.80
2019-03-26T15:57:29.325Z,23.40
2019-03-26T15:59:05.192Z,21.23
2019-03-26T16:00:41.562Z,24.33
2019-03-26T16:02:17.922Z,21.07
2019-03-26T16:03:54.092Z,27.27
2019-03-26T16:05:30.205Z,22.83
2019-03-26T16:07:06.439Z,18.73
2019-03-26T16:08:42.575Z,20.97
2019-03-26T16:10:18.877Z,20.60
2019-03-26T16:11:55.190Z,19.23
2019-03-26T16:13:31.434Z,22.90
2019-03-26T16:15:08.457Z,19.10
2019-03-26T16:16:44.616Z,20.13
2019-03-26T16:18:20.731Z,24.13
2019-03-26T16:19:56.917Z,21.80
2019-03-26T16:21:33.316Z,29.40
2019-03-26T16:23:09.587Z,23.20
2019-03-26T16:24:45.751Z,19.17
2019-03-26T16:26:21.989Z,20.87
2019-03-26T16:27:58.286Z,19.83
2019-03-26T16:29:34.448Z,22.23
2019-03-26T16:31:10.745Z,19.50
2019-03-26T16:32:46.975Z,26.67
2019-03-26T16:34:25.435Z,25.10
2019-03-26T16:36:01.701Z,21.90
2019-03-26T16:37:37.969Z,25.53
2019-03-26T16:39:14.206Z,25.23
2019-03-26T16:40:50.396Z,22.10
2019-03-26T16:42:26.628Z,28.77
2019-03-26T16:44:02.496Z,21.73
2019-03-26T16:45:38.485Z,23.17
2019-03-26T16:47:14.586Z,15.60
2019-03-26T16:48:50.884Z,22.00
2019-03-26T16:50:27.124Z,21.30
2019-03-26T16:52:03.391Z,22.20
2019-03-26T16:53:39.624Z,22.37
2019-03-26T16:55:15.828Z,23.67
2019-03-26T16:56:52.064Z,30.67
2019-03-26T16:58:29.739Z,39.47
2019-03-26T17:00:08.451Z,22.43
2019-03-26T17:01:44.611Z,27.03
2019-03-26T17:03:30.803Z,22.60
2019-03-26T17:04:58.371Z,26.50
2019-03-26T17:06:34.547Z,27.37
2019-03-26T17:08:10.718Z,25.00
2019-03-26T17:09:46.870Z,27.80
2019-03-26T17:11:23.138Z,37.53
2019-03-26T17:12:59.332Z,25.73
2019-03-26T17:14:35.570Z,24.03
2019-03-26T17:16:11.666Z,30.87
2019-03-26T17:17:47.932Z,32.20
2019-03-26T17:19:24.177Z,24.27
2019-03-26T17:21:00.503Z,37.00
2019-03-26T17:22:37.806Z,51.30
2019-03-26T17:24:14.036Z,39.73
2019-03-26T17:25:50.331Z,28.23
2019-03-26T17:27:29.019Z,35.10
2019-03-26T17:29:04.430Z,30.67
2019-03-26T17:30:40.667Z,29.00
2019-03-26T17:32:16.984Z,37.10
2019-03-26T17:33:53.394Z,32.50
2019-03-26T17:35:29.508Z,32.70
2019-03-26T17:37:05.700Z,29.37
2019-03-26T17:38:41.819Z,32.67
2019-03-26T17:40:18.124Z,33.37
2019-03-26T17:41:54.283Z,29.63
2019-03-26T17:43:30.445Z,25.73
2019-03-26T17:45:08.349Z,25.73
2019-03-26T17:46:44.666Z,30.50
2019-03-26T17:48:20.753Z,30.33
2019-03-26T17:49:57.095Z,31.40
2019-03-26T17:51:33.349Z,20.80
2019-03-26T17:53:09.542Z,23.63
2019-03-26T17:54:45.863Z,17.63
2019-03-26T17:56:22.070Z,18.33
2019-03-26T17:57:58.293Z,18.93
2019-03-26T17:59:34.563Z,100.53
2019-03-26T18:01:10.805Z,117.43
2019-03-26T18:02:47.114Z,141.83
2019-03-26T18:04:23.561Z,54.90
2019-03-26T18:05:59.726Z,96.57
2019-03-26T18:07:35.820Z,50.57
2019-03-26T18:09:12.123Z,20.70
2019-03-26T18:10:48.385Z,18.03
2019-03-26T18:12:30.831Z,17.47
2019-03-26T18:14:02.646Z,36.23
2019-03-26T18:15:38.878Z,12.10
2019-03-26T18:17:15.071Z,38.40
2019-03-26T18:18:51.234Z,42.27
2019-03-26T18:20:32.859Z,54.50
2019-03-26T18:22:05.467Z,47.13
2019-03-26T18:23:41.633Z,33.40
2019-03-26T18:25:17.776Z,27.77
2019-03-26T18:26:53.949Z,13.90
2019-03-26T18:28:30.354Z,32.27
2019-03-26T18:30:07.261Z,35.57
2019-03-26T18:31:43.400Z,92.97
2019-03-26T18:33:19.698Z,135.00
2019-03-26T18:34:56.038Z,82.87
2019-03-26T18:36:32.197Z,88.20
2019-03-26T18:38:08.502Z,48.97
2019-03-26T18:39:44.496Z,114.43
2019-03-26T18:41:20.675Z,50.83
2019-03-26T18:42:57.013Z,122.07
2019-03-26T18:44:33.116Z,59.27
2019-03-26T18:46:09.342Z,64.87
2019-03-26T18:47:45.661Z,47.73
2019-03-26T18:49:21.827Z,34.07
2019-03-26T18:50:58.054Z,25.77
2019-03-26T18:52:34.038Z,49.93
2019-03-26T18:54:10.298Z,34.67
2019-03-26T18:55:46.628Z,42.33
2019-03-26T18:57:22.622Z,29.70
2019-03-26T18:58:58.749Z,23.10
2019-03-26T19:00:37.288Z,30.57
2019-03-26T19:02:13.377Z,22.33
2019-03-26T19:03:49.582Z,17.83
2019-03-26T19:05:25.821Z,53.97
2019-03-26T19:07:02.136Z,93.33
2019-03-26T19:08:39.937Z,58.90
2019-03-26T19:10:28.734Z,76.03
2019-03-26T19:12:05.037Z,91.10
2019-03-26T19:13:41.220Z,67.00
2019-03-26T19:15:17.558Z,78.27
2019-03-26T19:16:53.675Z,165.83
2019-03-26T19:18:29.667Z,150.93
2019-03-26T19:20:07.877Z,177.43
2019-03-26T19:21:43.948Z,31.60
2019-03-26T19:23:20.252Z,55.53
2019-03-26T19:24:56.403Z,87.87
2019-03-26T19:26:32.811Z,107.00
2019-03-26T19:28:09.137Z,94.13
2019-03-26T19:29:45.231Z,67.80
2019-03-26T19:31:40.731Z,64.87
2019-03-26T19:33:17.009Z,40.87
2019-03-26T19:34:53.246Z,25.33
2019-03-26T19:36:29.382Z,63.30
2019-03-26T19:38:05.516Z,70.80
2019-03-26T19:39:41.651Z,51.50
2019-03-26T19:41:17.889Z,65.53
2019-03-26T19:42:53.979Z,66.50
2019-03-26T19:44:30.210Z,34.53
2019-03-26T19:46:08.976Z,27.87
2019-03-26T19:47:45.222Z,35.07
2019-03-26T19:49:21.377Z,20.50
2019-03-26T19:50:57.687Z,13.70
2019-03-26T19:52:33.772Z,24.37
2019-03-26T19:54:10.085Z,30.97
2019-03-26T19:55:46.251Z,43.53
2019-03-26T19:57:23.872Z,41.00
2019-03-26T19:59:00.186Z,52.57
2019-03-26T20:00:36.355Z,42.03
2019-03-26T20:02:12.631Z,29.60
2019-03-26T20:03:48.680Z,30.83
2019-03-26T20:05:24.943Z,24.43
2019-03-26T20:07:01.111Z,53.80
2019-03-26T20:08:37.376Z,39.40
2019-03-26T20:10:15.069Z,23.37
2019-03-26T20:11:51.316Z,31.60
2019-03-26T20:13:27.639Z,32.43
2019-03-26T20:15:05.880Z,22.73
2019-03-26T20:16:42.417Z,31.97
2019-03-26T20:18:20.293Z,44.20
2019-03-26T20:19:59.222Z,30.27
2019-03-26T20:21:35.391Z,24.70
2019-03-26T20:23:14.380Z,23.77
2019-03-26T20:24:50.719Z,37.00
2019-03-26T20:26:27.124Z,26.87
2019-03-26T20:28:03.463Z,28.27
2019-03-26T20:29:39.692Z,23.77
2019-03-26T20:31:15.933Z,24.97
2019-03-26T20:37:27.221Z,20.57
2019-03-26T20:39:04.113Z,20.50
2019-03-26T20:40:40.553Z,18.40
2019-03-26T20:42:17.202Z,19.63
2019-03-26T20:43:53.703Z,20.83
2019-03-26T20:45:30.131Z,19.20
2019-03-26T20:47:07.543Z,19.87